Time;durP1;ratioP1;P1;durP2;ratioP2;P2;SDS_P1;SDS_P2;PMS_P1;PMS_P2;Temp;Humidity;BMP_temperature;BMP_pressure;BME280_temperature;BME280_humidity;BME280_pressure;Samples;Min_cycle;Max_cycle;Signal;HPM_P1;HPM_P2
2022/10/04 00:02:26;;;;;;;4.55;2.03;;;;;;;;;;9939445;29;20490;-66
2022/10/04 00:07:26;;;;;;;5.95;2.00;;;;;;;;;;9939008;29;20160;-66
2022/10/04 00:12:27;;;;;;;4.60;1.67;;;;;;;;;;9938470;29;20537;-67
2022/10/04 00:17:26;;;;;;;3.38;2.17;;;;;;;;;;9938746;29;20089;-65
2022/10/04 00:22:27;;;;;;;6.45;2.97;;;;;;;;;;9940176;29;20487;-66
2022/10/04 00:27:26;;;;;;;10.98;2.50;;;;;;;;;;9938477;29;20077;-66
2022/10/04 00:32:26;;;;;;;3.83;1.70;;;;;;;;;;9937179;29;20088;-66
2022/10/04 00:37:26;;;;;;;4.75;1.90;;;;;;;;;;9937095;29;20072;-66
2022/10/04 00:42:40;;;;;;;5.78;2.35;;;;;;;;;;9933765;29;20073;-66
2022/10/04 00:47:55;;;;;;;6.05;2.15;;;;;;;;;;9934449;29;20112;-66
2022/10/04 00:52:56;;;;;;;3.15;1.80;;;;;;;;;;9951726;29;20521;-65
2022/10/04 00:57:58;;;;;;;5.47;2.03;;;;;;;;;;9963751;29;20407;-65
2022/10/04 01:02:59;;;;;;;6.38;2.63;;;;;;;;;;9962655;29;20116;-66
2022/10/04 01:08:02;;;;;;;4.57;2.13;;;;;;;;;;9942523;29;20053;-67
2022/10/04 01:13:05;;;;;;;3.90;1.90;;;;;;;;;;9936676;29;20084;-66
2022/10/04 01:18:07;;;;;;;7.55;2.47;;;;;;;;;;9936197;29;20085;-66
2022/10/04 01:23:09;;;;;;;3.70;2.35;;;;;;;;;;9936447;29;20084;-66
2022/10/04 01:28:07;;;;;;;3.50;2.10;;;;;;;;;;9936051;29;20114;-66
2022/10/04 01:33:06;;;;;;;7.03;2.40;;;;;;;;;;9935963;29;20087;-65
2022/10/04 01:38:06;;;;;;;8.63;1.90;;;;;;;;;;9935862;29;20081;-66
2022/10/04 01:43:07;;;;;;;7.13;1.90;;;;;;;;;;9935728;29;20084;-66
2022/10/04 01:48:07;;;;;;;9.40;2.38;;;;;;;;;;9934808;29;20542;-66
2022/10/04 01:53:10;;;;;;;5.05;1.85;;;;;;;;;;9935394;29;20084;-66
2022/10/04 01:58:13;;;;;;;4.80;2.05;;;;;;;;;;9935179;29;20475;-66
2022/10/04 02:03:16;;;;;;;3.63;2.10;;;;;;;;;;9934906;29;20539;-66
2022/10/04 02:08:16;;;;;;;4.25;2.13;;;;;;;;;;9934015;29;20160;-66
2022/10/04 02:13:18;;;;;;;3.40;2.05;;;;;;;;;;9934316;29;20523;-66
2022/10/04 02:18:17;;;;;;;6.03;1.83;;;;;;;;;;9933736;29;20498;-67
2022/10/04 02:23:16;;;;;;;9.65;4.60;;;;;;;;;;9933600;29;20080;-67
2022/10/04 02:28:17;;;;;;;3.00;1.98;;;;;;;;;;9933890;29;20087;-66
2022/10/04 02:33:16;;;;;;;3.67;2.00;;;;;;;;;;9933826;29;20076;-66
2022/10/04 02:38:17;;;;;;;6.47;2.03;;;;;;;;;;9932860;29;20077;-66
2022/10/04 02:43:19;;;;;;;7.38;2.53;;;;;;;;;;9933028;29;20088;-67
2022/10/04 02:48:27;;;;;;;2.55;1.88;;;;;;;;;;9933289;29;20076;-66
2022/10/04 02:53:31;;;;;;;3.55;1.90;;;;;;;;;;9933033;29;20088;-66
2022/10/04 02:58:32;;;;;;;4.20;2.00;;;;;;;;;;9931760;29;20151;-67
2022/10/04 03:03:31;;;;;;;3.60;1.88;;;;;;;;;;9932791;29;20107;-66
2022/10/04 03:08:31;;;;;;;6.85;2.28;;;;;;;;;;9932385;29;20076;-66
2022/10/04 03:13:31;;;;;;;7.28;2.50;;;;;;;;;;9931796;29;20298;-67
2022/10/04 03:18:30;;;;;;;8.25;3.30;;;;;;;;;;9932043;29;20540;-66
2022/10/04 03:23:30;;;;;;;6.20;2.42;;;;;;;;;;9931758;29;20293;-67
2022/10/04 03:28:29;;;;;;;5.13;1.95;;;;;;;;;;9932241;29;20532;-67
2022/10/04 03:33:29;;;;;;;4.82;2.55;;;;;;;;;;9932248;29;20075;-66
2022/10/04 03:38:28;;;;;;;4.05;2.97;;;;;;;;;;9932098;29;20085;-65
2022/10/04 03:43:30;;;;;;;3.92;2.15;;;;;;;;;;9931896;29;20052;-66
2022/10/04 03:48:34;;;;;;;4.65;2.42;;;;;;;;;;9931145;29;20088;-66
2022/10/04 03:53:36;;;;;;;4.07;1.95;;;;;;;;;;9931550;29;20707;-66
2022/10/04 03:58:35;;;;;;;4.07;2.53;;;;;;;;;;9930762;29;20572;-66
2022/10/04 04:03:41;;;;;;;3.80;2.95;;;;;;;;;;9938459;29;20084;-66
2022/10/04 04:08:43;;;;;;;3.75;2.80;;;;;;;;;;9951000;29;20549;-66
